sensor_id;sensor_type;location;lat;lon;timestamp;P1;durP1;ratioP1;P2;durP2;ratioP2
9880;SDS011;4979;51.014;6.678;2023-06-01T00:02:05;6.90;;;3.35;;
9880;SDS011;4979;51.014;6.678;2023-06-01T00:04:31;5.55;;;3.22;;
9880;SDS011;4979;51.014;6.678;2023-06-01T00:06:56;11.63;;;3.10;;
9880;SDS011;4979;51.014;6.678;2023-06-01T00:09:25;8.45;;;3.22;;
9880;SDS011;4979;51.014;6.678;2023-06-01T00:11:50;6.93;;;3.17;;
9880;SDS011;4979;51.014;6.678;2023-06-01T00:14:16;5.53;;;3.22;;
9880;SDS011;4979;51.014;6.678;2023-06-01T00:16:41;4.75;;;3.17;;
9880;SDS011;4979;51.014;6.678;2023-06-01T00:19:07;7.93;;;3.78;;
9880;SDS011;4979;51.014;6.678;2023-06-01T00:21:34;6.32;;;2.90;;
9880;SDS011;4979;51.014;6.678;2023-06-01T00:24:00;6.57;;;2.85;;
9880;SDS011;4979;51.014;6.678;2023-06-01T00:26:26;4.22;;;2.80;;
9880;SDS011;4979;51.014;6.678;2023-06-01T00:28:52;4.80;;;2.97;;
9880;SDS011;4979;51.014;6.678;2023-06-01T00:31:17;6.40;;;3.03;;
9880;SDS011;4979;51.014;6.678;2023-06-01T00:33:43;4.07;;;2.80;;
9880;SDS011;4979;51.014;6.678;2023-06-01T00:36:09;5.13;;;3.13;;
9880;SDS011;4979;51.014;6.678;2023-06-01T00:38:34;8.27;;;2.90;;
9880;SDS011;4979;51.014;6.678;2023-06-01T00:41:00;4.15;;;2.53;;
9880;SDS011;4979;51.014;6.678;2023-06-01T00:43:26;5.80;;;2.88;;
9880;SDS011;4979;51.014;6.678;2023-06-01T00:45:52;6.70;;;3.13;;
9880;SDS011;4979;51.014;6.678;2023-06-01T00:48:18;5.13;;;3.28;;
9880;SDS011;4979;51.014;6.678;2023-06-01T00:50:46;5.68;;;3.35;;
9880;SDS011;4979;51.014;6.678;2023-06-01T00:53:15;4.20;;;2.55;;
9880;SDS011;4979;51.014;6.678;2023-06-01T00:55:43;4.72;;;2.90;;
9880;SDS011;4979;51.014;6.678;2023-06-01T00:58:09;5.80;;;3.08;;
9880;SDS011;4979;51.014;6.678;2023-06-01T01:00:35;5.65;;;2.85;;
9880;SDS011;4979;51.014;6.678;2023-06-01T01:03:02;4.13;;;3.03;;
9880;SDS011;4979;51.014;6.678;2023-06-01T01:05:32;7.72;;;3.30;;
9880;SDS011;4979;51.014;6.678;2023-06-01T01:16:11;5.15;;;3.08;;
9880;SDS011;4979;51.014;6.678;2023-06-01T01:19:00;5.40;;;2.92;;
9880;SDS011;4979;51.014;6.678;2023-06-01T01:21:32;5.80;;;3.00;;
9880;SDS011;4979;51.014;6.678;2023-06-01T01:29:40;5.68;;;3.17;;
9880;SDS011;4979;51.014;6.678;2023-06-01T01:32:08;7.10;;;3.42;;
9880;SDS011;4979;51.014;6.678;2023-06-01T01:34:34;6.50;;;3.58;;
9880;SDS011;4979;51.014;6.678;2023-06-01T01:37:00;4.32;;;3.33;;
9880;SDS011;4979;51.014;6.678;2023-06-01T01:39:26;9.10;;;3.53;;
9880;SDS011;4979;51.014;6.678;2023-06-01T01:41:52;6.63;;;3.30;;
9880;SDS011;4979;51.014;6.678;2023-06-01T01:44:17;5.72;;;3.42;;
9880;SDS011;4979;51.014;6.678;2023-06-01T01:49:40;4.88;;;3.30;;
9880;SDS011;4979;51.014;6.678;2023-06-01T01:54:37;8.50;;;4.28;;
9880;SDS011;4979;51.014;6.678;2023-06-01T01:57:07;6.32;;;3.47;;
9880;SDS011;4979;51.014;6.678;2023-06-01T01:59:33;5.88;;;3.78;;
9880;SDS011;4979;51.014;6.678;2023-06-01T02:02:00;7.22;;;3.95;;
9880;SDS011;4979;51.014;6.678;2023-06-01T02:04:27;8.85;;;4.32;;
9880;SDS011;4979;51.014;6.678;2023-06-01T02:06:53;7.28;;;4.05;;
9880;SDS011;4979;51.014;6.678;2023-06-01T02:09:19;13.43;;;4.78;;
9880;SDS011;4979;51.014;6.678;2023-06-01T02:11:44;6.82;;;4.00;;
9880;SDS011;4979;51.014;6.678;2023-06-01T02:14:10;9.95;;;4.47;;
9880;SDS011;4979;51.014;6.678;2023-06-01T02:16:36;8.52;;;4.25;;
9880;SDS011;4979;51.014;6.678;2023-06-01T02:19:01;9.98;;;4.57;;
9880;SDS011;4979;51.014;6.678;2023-06-01T02:21:27;8.70;;;5.03;;
9880;SDS011;4979;51.014;6.678;2023-06-01T02:23:53;10.88;;;4.57;;
9880;SDS011;4979;51.014;6.678;2023-06-01T02:26:19;5.32;;;3.90;;
9880;SDS011;4979;51.014;6.678;2023-06-01T02:28:44;6.22;;;3.97;;
9880;SDS011;4979;51.014;6.678;2023-06-01T02:31:10;11.63;;;4.35;;
9880;SDS011;4979;51.014;6.678;2023-06-01T02:33:37;10.32;;;5.20;;
9880;SDS011;4979;51.014;6.678;2023-06-01T02:36:03;6.78;;;4.85;;
9880;SDS011;4979;51.014;6.678;2023-06-01T02:38:28;9.77;;;5.20;;
9880;SDS011;4979;51.014;6.678;2023-06-01T02:40:54;11.98;;;5.00;;
9880;SDS011;4979;51.014;6.678;2023-06-01T02:43:21;8.93;;;5.30;;
9880;SDS011;4979;51.014;6.678;2023-06-01T02:45:46;12.40;;;4.80;;
9880;SDS011;4979;51.014;6.678;2023-06-01T02:48:12;10.68;;;5.10;;
9880;SDS011;4979;51.014;6.678;2023-06-01T02:50:37;9.13;;;5.13;;
9880;SDS011;4979;51.014;6.678;2023-06-01T02:53:03;8.07;;;4.97;;
9880;SDS011;4979;51.014;6.678;2023-06-01T02:55:30;9.02;;;5.82;;
9880;SDS011;4979;51.014;6.678;2023-06-01T02:57:55;12.68;;;6.32;;
9880;SDS011;4979;51.014;6.678;2023-06-01T03:00:21;8.23;;;5.85;;
9880;SDS011;4979;51.014;6.678;2023-06-01T03:02:47;8.20;;;6.18;;
9880;SDS011;4979;51.014;6.678;2023-06-01T03:05:13;18.08;;;7.28;;
9880;SDS011;4979;51.014;6.678;2023-06-01T03:07:42;13.27;;;6.53;;
9880;SDS011;4979;51.014;6.678;2023-06-01T03:10:09;10.52;;;6.45;;
9880;SDS011;4979;51.014;6.678;2023-06-01T03:12:35;12.82;;;6.75;;
9880;SDS011;4979;51.014;6.678;2023-06-01T03:15:01;6.85;;;5.97;;
9880;SDS011;4979;51.014;6.678;2023-06-01T03:17:26;17.77;;;8.05;;
9880;SDS011;4979;51.014;6.678;2023-06-01T03:19:52;12.18;;;7.65;;
9880;SDS011;4979;51.014;6.678;2023-06-01T03:22:17;14.95;;;8.13;;
9880;SDS011;4979;51.014;6.678;2023-06-01T03:24:43;15.05;;;7.88;;
9880;SDS011;4979;51.014;6.678;2023-06-01T03:27:09;11.35;;;8.13;;
9880;SDS011;4979;51.014;6.678;2023-06-01T03:29:36;14.55;;;8.48;;
9880;SDS011;4979;51.014;6.678;2023-06-01T03:32:01;13.30;;;8.07;;
9880;SDS011;4979;51.014;6.678;2023-06-01T03:34:27;14.90;;;8.45;;
9880;SDS011;4979;51.014;6.678;2023-06-01T03:36:53;18.10;;;8.82;;
9880;SDS011;4979;51.014;6.678;2023-06-01T03:39:19;14.90;;;9.27;;
9880;SDS011;4979;51.014;6.678;2023-06-01T03:41:44;19.42;;;9.10;;
9880;SDS011;4979;51.014;6.678;2023-06-01T03:44:11;17.92;;;9.52;;
9880;SDS011;4979;51.014;6.678;2023-06-01T03:46:37;20.42;;;10.40;;
9880;SDS011;4979;51.014;6.678;2023-06-01T03:49:03;14.85;;;9.60;;
9880;SDS011;4979;51.014;6.678;2023-06-01T03:51:29;13.95;;;9.55;;
9880;SDS011;4979;51.014;6.678;2023-06-01T03:53:55;20.20;;;9.32;;
9880;SDS011;4979;51.014;6.678;2023-06-01T03:56:21;18.83;;;9.93;;
9880;SDS011;4979;51.014;6.678;2023-06-01T03:58:47;18.33;;;9.57;;
9880;SDS011;4979;51.014;6.678;2023-06-01T04:01:13;15.88;;;9.73;;
9880;SDS011;4979;51.014;6.678;2023-06-01T04:03:42;19.88;;;10.18;;
9880;SDS011;4979;51.014;6.678;2023-06-01T04:06:08;17.63;;;10.25;;
9880;SDS011;4979;51.014;6.678;2023-06-01T04:08:37;15.05;;;9.00;;
9880;SDS011;4979;51.014;6.678;2023-06-01T04:11:12;15.93;;;9.25;;
9880;SDS011;4979;51.014;6.678;2023-06-01T04:13:38;19.85;;;10.25;;
9880;SDS011;4979;51.014;6.678;2023-06-01T04:16:04;21.08;;;10.93;;
9880;SDS011;4979;51.014;6.678;2023-06-01T04:18:30;17.05;;;10.30;;
9880;SDS011;4979;51.014;6.678;2023-06-01T04:20:55;20.88;;;9.95;;
9880;SDS011;4979;51.014;6.678;2023-06-01T04:23:22;18.98;;;10.20;;
9880;SDS011;4979;51.014;6.678;2023-06-01T04:25:47;20.35;;;10.30;;
9880;SDS011;4979;51.014;6.678;2023-06-01T04:28:16;22.25;;;10.43;;
9880;SDS011;4979;51.014;6.678;2023-06-01T04:30:42;15.32;;;10.23;;
9880;SDS011;4979;51.014;6.678;2023-06-01T04:33:12;15.25;;;10.25;;
9880;SDS011;4979;51.014;6.678;2023-06-01T04:35:38;21.63;;;11.02;;
9880;SDS011;4979;51.014;6.678;2023-06-01T04:38:04;16.23;;;10.80;;
9880;SDS011;4979;51.014;6.678;2023-06-01T04:40:30;17.92;;;9.75;;
9880;SDS011;4979;51.014;6.678;2023-06-01T04:42:56;14.38;;;9.82;;
9880;SDS011;4979;51.014;6.678;2023-06-01T04:45:23;17.65;;;9.63;;
9880;SDS011;4979;51.014;6.678;2023-06-01T04:47:50;15.23;;;10.45;;
9880;SDS011;4979;51.014;6.678;2023-06-01T04:50:16;21.25;;;11.05;;
9880;SDS011;4979;51.014;6.678;2023-06-01T04:52:42;14.70;;;10.50;;
9880;SDS011;4979;51.014;6.678;2023-06-01T04:55:09;19.05;;;11.13;;
9880;SDS011;4979;51.014;6.678;2023-06-01T04:57:36;18.58;;;11.93;;
9880;SDS011;4979;51.014;6.678;2023-06-01T05:00:04;20.50;;;13.23;;
9880;SDS011;4979;51.014;6.678;2023-06-01T05:02:36;19.20;;;14.07;;
9880;SDS011;4979;51.014;6.678;2023-06-01T05:05:02;21.20;;;14.38;;
9880;SDS011;4979;51.014;6.678;2023-06-01T05:07:29;24.67;;;15.93;;
9880;SDS011;4979;51.014;6.678;2023-06-01T05:09:55;24.08;;;16.73;;
9880;SDS011;4979;51.014;6.678;2023-06-01T05:12:21;24.58;;;16.77;;
9880;SDS011;4979;51.014;6.678;2023-06-01T05:14:46;29.85;;;17.60;;
9880;SDS011;4979;51.014;6.678;2023-06-01T05:17:12;25.08;;;18.83;;
9880;SDS011;4979;51.014;6.678;2023-06-01T05:19:38;28.45;;;19.83;;
9880;SDS011;4979;51.014;6.678;2023-06-01T05:22:04;27.23;;;19.10;;
9880;SDS011;4979;51.014;6.678;2023-06-01T05:24:33;31.27;;;21.20;;
9880;SDS011;4979;51.014;6.678;2023-06-01T05:26:58;30.77;;;20.95;;
9880;SDS011;4979;51.014;6.678;2023-06-01T05:29:24;31.70;;;21.45;;
9880;SDS011;4979;51.014;6.678;2023-06-01T05:31:50;30.90;;;20.55;;
9880;SDS011;4979;51.014;6.678;2023-06-01T05:34:15;39.03;;;24.00;;
9880;SDS011;4979;51.014;6.678;2023-06-01T05:36:41;36.50;;;26.05;;
9880;SDS011;4979;51.014;6.678;2023-06-01T05:39:06;41.55;;;25.48;;
9880;SDS011;4979;51.014;6.678;2023-06-01T05:41:32;50.60;;;28.30;;
9880;SDS011;4979;51.014;6.678;2023-06-01T05:43:58;47.58;;;29.60;;
9880;SDS011;4979;51.014;6.678;2023-06-01T05:46:24;55.28;;;29.55;;
9880;SDS011;4979;51.014;6.678;2023-06-01T05:48:50;53.03;;;31.50;;
9880;SDS011;4979;51.014;6.678;2023-06-01T05:51:16;49.25;;;29.88;;
9880;SDS011;4979;51.014;6.678;2023-06-01T05:53:42;51.90;;;31.00;;
9880;SDS011;4979;51.014;6.678;2023-06-01T05:56:08;48.38;;;32.55;;
9880;SDS011;4979;51.014;6.678;2023-06-01T05:58:33;51.35;;;32.50;;
9880;SDS011;4979;51.014;6.678;2023-06-01T06:00:59;49.67;;;32.08;;
9880;SDS011;4979;51.014;6.678;2023-06-01T06:03:24;49.00;;;32.78;;
9880;SDS011;4979;51.014;6.678;2023-06-01T06:05:50;51.28;;;32.47;;
9880;SDS011;4979;51.014;6.678;2023-06-01T06:08:15;57.00;;;32.17;;
9880;SDS011;4979;51.014;6.678;2023-06-01T06:10:41;54.85;;;33.65;;
9880;SDS011;4979;51.014;6.678;2023-06-01T06:13:07;57.35;;;35.15;;
9880;SDS011;4979;51.014;6.678;2023-06-01T06:15:32;55.83;;;34.90;;
9880;SDS011;4979;51.014;6.678;2023-06-01T06:17:58;51.10;;;32.80;;
9880;SDS011;4979;51.014;6.678;2023-06-01T06:20:23;50.38;;;33.45;;
9880;SDS011;4979;51.014;6.678;2023-06-01T06:22:50;55.33;;;34.45;;
9880;SDS011;4979;51.014;6.678;2023-06-01T06:25:16;51.78;;;34.58;;
9880;SDS011;4979;51.014;6.678;2023-06-01T06:27:42;41.42;;;29.35;;
9880;SDS011;4979;51.014;6.678;2023-06-01T06:30:08;49.20;;;31.60;;
9880;SDS011;4979;51.014;6.678;2023-06-01T06:32:34;58.67;;;34.95;;
9880;SDS011;4979;51.014;6.678;2023-06-01T06:35:00;59.03;;;35.05;;
9880;SDS011;4979;51.014;6.678;2023-06-01T06:37:27;65.75;;;37.60;;
9880;SDS011;4979;51.014;6.678;2023-06-01T06:39:54;56.05;;;36.25;;
9880;SDS011;4979;51.014;6.678;2023-06-01T06:42:19;58.42;;;38.03;;
9880;SDS011;4979;51.014;6.678;2023-06-01T06:44:45;59.92;;;37.05;;
9880;SDS011;4979;51.014;6.678;2023-06-01T06:47:11;54.55;;;36.83;;
9880;SDS011;4979;51.014;6.678;2023-06-01T06:49:40;58.17;;;37.10;;
9880;SDS011;4979;51.014;6.678;2023-06-01T06:52:06;61.60;;;37.58;;
9880;SDS011;4979;51.014;6.678;2023-06-01T06:54:31;55.17;;;37.50;;
9880;SDS011;4979;51.014;6.678;2023-06-01T06:56:57;58.10;;;39.85;;
9880;SDS011;4979;51.014;6.678;2023-06-01T06:59:23;52.88;;;34.42;;
9880;SDS011;4979;51.014;6.678;2023-06-01T07:01:48;55.08;;;34.88;;
9880;SDS011;4979;51.014;6.678;2023-06-01T07:04:14;62.50;;;37.38;;
9880;SDS011;4979;51.014;6.678;2023-06-01T07:06:39;58.00;;;37.88;;
9880;SDS011;4979;51.014;6.678;2023-06-01T07:09:05;60.08;;;37.05;;
9880;SDS011;4979;51.014;6.678;2023-06-01T07:11:32;63.85;;;38.80;;
9880;SDS011;4979;51.014;6.678;2023-06-01T07:13:57;55.95;;;35.20;;
9880;SDS011;4979;51.014;6.678;2023-06-01T07:16:23;57.53;;;39.03;;
9880;SDS011;4979;51.014;6.678;2023-06-01T07:18:50;58.70;;;39.42;;
9880;SDS011;4979;51.014;6.678;2023-06-01T07:21:16;55.42;;;39.72;;
9880;SDS011;4979;51.014;6.678;2023-06-01T07:23:44;57.83;;;38.47;;
9880;SDS011;4979;51.014;6.678;2023-06-01T07:26:10;55.50;;;39.30;;
9880;SDS011;4979;51.014;6.678;2023-06-01T07:28:36;55.53;;;38.42;;
9880;SDS011;4979;51.014;6.678;2023-06-01T07:31:02;58.50;;;40.13;;
9880;SDS011;4979;51.014;6.678;2023-06-01T07:33:28;55.15;;;36.63;;
9880;SDS011;4979;51.014;6.678;2023-06-01T07:35:54;61.05;;;40.90;;
9880;SDS011;4979;51.014;6.678;2023-06-01T07:38:22;55.80;;;40.33;;
9880;SDS011;4979;51.014;6.678;2023-06-01T07:40:49;60.88;;;39.53;;
9880;SDS011;4979;51.014;6.678;2023-06-01T07:43:15;55.15;;;39.38;;
9880;SDS011;4979;51.014;6.678;2023-06-01T07:45:41;53.97;;;38.35;;
9880;SDS011;4979;51.014;6.678;2023-06-01T07:48:07;47.53;;;33.28;;
9880;SDS011;4979;51.014;6.678;2023-06-01T07:50:33;56.25;;;35.72;;
9880;SDS011;4979;51.014;6.678;2023-06-01T07:52:59;47.40;;;33.85;;
9880;SDS011;4979;51.014;6.678;2023-06-01T07:55:25;42.53;;;33.85;;
9880;SDS011;4979;51.014;6.678;2023-06-01T07:57:51;38.85;;;29.52;;
9880;SDS011;4979;51.014;6.678;2023-06-01T08:00:17;50.22;;;32.70;;
9880;SDS011;4979;51.014;6.678;2023-06-01T08:02:43;48.28;;;34.08;;
9880;SDS011;4979;51.014;6.678;2023-06-01T08:05:09;42.33;;;32.65;;
9880;SDS011;4979;51.014;6.678;2023-06-01T08:07:36;45.92;;;34.17;;
9880;SDS011;4979;51.014;6.678;2023-06-01T08:10:03;47.85;;;33.60;;
9880;SDS011;4979;51.014;6.678;2023-06-01T08:12:30;41.17;;;32.38;;
9880;SDS011;4979;51.014;6.678;2023-06-01T08:14:56;42.17;;;31.73;;
9880;SDS011;4979;51.014;6.678;2023-06-01T08:17:23;42.97;;;32.17;;
9880;SDS011;4979;51.014;6.678;2023-06-01T08:19:49;46.10;;;33.80;;
9880;SDS011;4979;51.014;6.678;2023-06-01T08:22:15;48.10;;;33.42;;
9880;SDS011;4979;51.014;6.678;2023-06-01T08:24:41;44.00;;;32.00;;
9880;SDS011;4979;51.014;6.678;2023-06-01T08:27:16;43.60;;;32.20;;
9880;SDS011;4979;51.014;6.678;2023-06-01T08:29:44;44.10;;;32.25;;
9880;SDS011;4979;51.014;6.678;2023-06-01T08:32:12;39.88;;;31.17;;
9880;SDS011;4979;51.014;6.678;2023-06-01T08:34:37;38.72;;;31.70;;
9880;SDS011;4979;51.014;6.678;2023-06-01T08:37:03;46.22;;;30.58;;
9880;SDS011;4979;51.014;6.678;2023-06-01T08:39:29;43.83;;;31.90;;
9880;SDS011;4979;51.014;6.678;2023-06-01T08:44:44;44.90;;;32.13;;
9880;SDS011;4979;51.014;6.678;2023-06-01T08:47:09;37.40;;;30.42;;
9880;SDS011;4979;51.014;6.678;2023-06-01T08:49:35;38.15;;;28.75;;
9880;SDS011;4979;51.014;6.678;2023-06-01T08:52:02;46.78;;;30.38;;
9880;SDS011;4979;51.014;6.678;2023-06-01T08:54:28;45.03;;;32.70;;
9880;SDS011;4979;51.014;6.678;2023-06-01T08:56:57;45.10;;;30.90;;
9880;SDS011;4979;51.014;6.678;2023-06-01T08:59:23;41.10;;;29.27;;
9880;SDS011;4979;51.014;6.678;2023-06-01T09:01:49;40.85;;;29.60;;
9880;SDS011;4979;51.014;6.678;2023-06-01T09:04:15;50.72;;;31.60;;
9880;SDS011;4979;51.014;6.678;2023-06-01T09:06:41;37.75;;;29.45;;
9880;SDS011;4979;51.014;6.678;2023-06-01T09:09:07;43.13;;;28.98;;
9880;SDS011;4979;51.014;6.678;2023-06-01T09:11:36;37.50;;;30.65;;
9880;SDS011;4979;51.014;6.678;2023-06-01T09:14:02;38.42;;;28.70;;
9880;SDS011;4979;51.014;6.678;2023-06-01T09:16:45;45.15;;;32.13;;
9880;SDS011;4979;51.014;6.678;2023-06-01T09:19:11;35.47;;;27.85;;
9880;SDS011;4979;51.014;6.678;2023-06-01T09:21:37;39.30;;;28.55;;
9880;SDS011;4979;51.014;6.678;2023-06-01T09:24:23;37.75;;;28.33;;
9880;SDS011;4979;51.014;6.678;2023-06-01T09:26:49;35.50;;;27.52;;
9880;SDS011;4979;51.014;6.678;2023-06-01T09:29:15;36.80;;;27.95;;
9880;SDS011;4979;51.014;6.678;2023-06-01T09:31:42;37.38;;;26.38;;
9880;SDS011;4979;51.014;6.678;2023-06-01T09:34:10;37.83;;;27.55;;
9880;SDS011;4979;51.014;6.678;2023-06-01T09:36:36;34.83;;;24.75;;
9880;SDS011;4979;51.014;6.678;2023-06-01T09:39:09;34.72;;;25.52;;
9880;SDS011;4979;51.014;6.678;2023-06-01T09:44:12;32.58;;;25.42;;
9880;SDS011;4979;51.014;6.678;2023-06-01T09:46:48;34.05;;;25.13;;
9880;SDS011;4979;51.014;6.678;2023-06-01T09:49:18;35.28;;;23.98;;
9880;SDS011;4979;51.014;6.678;2023-06-01T09:51:45;31.95;;;23.55;;
9880;SDS011;4979;51.014;6.678;2023-06-01T09:54:21;33.03;;;24.60;;
9880;SDS011;4979;51.014;6.678;2023-06-01T09:56:47;27.40;;;21.63;;
9880;SDS011;4979;51.014;6.678;2023-06-01T09:59:13;31.23;;;22.17;;
9880;SDS011;4979;51.014;6.678;2023-06-01T10:01:39;29.98;;;23.90;;
9880;SDS011;4979;51.014;6.678;2023-06-01T10:04:06;31.50;;;21.17;;
9880;SDS011;4979;51.014;6.678;2023-06-01T10:06:33;33.80;;;22.48;;
9880;SDS011;4979;51.014;6.678;2023-06-01T10:09:04;29.42;;;20.98;;
9880;SDS011;4979;51.014;6.678;2023-06-01T10:11:38;28.88;;;18.63;;
9880;SDS011;4979;51.014;6.678;2023-06-01T10:14:03;26.48;;;18.13;;
9880;SDS011;4979;51.014;6.678;2023-06-01T10:16:29;24.98;;;17.40;;
9880;SDS011;4979;51.014;6.678;2023-06-01T10:18:55;28.67;;;17.90;;
9880;SDS011;4979;51.014;6.678;2023-06-01T10:21:22;21.38;;;14.45;;
9880;SDS011;4979;51.014;6.678;2023-06-01T10:23:48;24.20;;;17.23;;
9880;SDS011;4979;51.014;6.678;2023-06-01T10:26:15;24.30;;;17.27;;
9880;SDS011;4979;51.014;6.678;2023-06-01T10:28:44;26.58;;;17.35;;
9880;SDS011;4979;51.014;6.678;2023-06-01T10:34:03;23.70;;;16.08;;
9880;SDS011;4979;51.014;6.678;2023-06-01T10:39:23;21.30;;;15.70;;
9880;SDS011;4979;51.014;6.678;2023-06-01T10:41:58;20.63;;;13.98;;
9880;SDS011;4979;51.014;6.678;2023-06-01T10:44:44;24.77;;;14.80;;
9880;SDS011;4979;51.014;6.678;2023-06-01T10:54:54;23.60;;;15.02;;
9880;SDS011;4979;51.014;6.678;2023-06-01T10:57:40;20.58;;;13.68;;
9880;SDS011;4979;51.014;6.678;2023-06-01T11:13:27;24.38;;;11.18;;
9880;SDS011;4979;51.014;6.678;2023-06-01T11:18:41;19.65;;;12.43;;
9880;SDS011;4979;51.014;6.678;2023-06-01T11:21:41;19.65;;;10.18;;
9880;SDS011;4979;51.014;6.678;2023-06-01T11:24:12;17.02;;;10.60;;
9880;SDS011;4979;51.014;6.678;2023-06-01T11:29:08;15.93;;;10.77;;
9880;SDS011;4979;51.014;6.678;2023-06-01T11:31:36;15.63;;;10.90;;
9880;SDS011;4979;51.014;6.678;2023-06-01T11:34:02;17.58;;;10.40;;
9880;SDS011;4979;51.014;6.678;2023-06-01T11:36:29;18.85;;;10.27;;
9880;SDS011;4979;51.014;6.678;2023-06-01T11:39:01;17.95;;;10.82;;
9880;SDS011;4979;51.014;6.678;2023-06-01T11:41:28;15.65;;;10.43;;
9880;SDS011;4979;51.014;6.678;2023-06-01T11:43:57;18.83;;;10.10;;
9880;SDS011;4979;51.014;6.678;2023-06-01T11:46:23;19.65;;;9.88;;
9880;SDS011;4979;51.014;6.678;2023-06-01T11:49:04;18.55;;;10.45;;
9880;SDS011;4979;51.014;6.678;2023-06-01T11:51:32;20.15;;;11.50;;
9880;SDS011;4979;51.014;6.678;2023-06-01T11:54:02;15.70;;;9.88;;
9880;SDS011;4979;51.014;6.678;2023-06-01T11:56:29;15.60;;;8.85;;
9880;SDS011;4979;51.014;6.678;2023-06-01T11:58:58;21.38;;;9.80;;
9880;SDS011;4979;51.014;6.678;2023-06-01T12:01:33;12.45;;;8.88;;
9880;SDS011;4979;51.014;6.678;2023-06-01T12:03:59;13.35;;;9.10;;
9880;SDS011;4979;51.014;6.678;2023-06-01T12:06:27;15.80;;;9.00;;
9880;SDS011;4979;51.014;6.678;2023-06-01T12:08:56;14.98;;;10.10;;
9880;SDS011;4979;51.014;6.678;2023-06-01T12:11:23;15.52;;;8.80;;
9880;SDS011;4979;51.014;6.678;2023-06-01T12:13:55;19.77;;;9.95;;
9880;SDS011;4979;51.014;6.678;2023-06-01T12:16:22;15.80;;;9.05;;
9880;SDS011;4979;51.014;6.678;2023-06-01T12:18:48;16.23;;;8.85;;
9880;SDS011;4979;51.014;6.678;2023-06-01T12:21:14;11.40;;;8.27;;
9880;SDS011;4979;51.014;6.678;2023-06-01T12:23:41;17.15;;;9.90;;
9880;SDS011;4979;51.014;6.678;2023-06-01T12:26:07;16.35;;;9.77;;
9880;SDS011;4979;51.014;6.678;2023-06-01T12:28:49;12.65;;;8.85;;
9880;SDS011;4979;51.014;6.678;2023-06-01T12:31:17;15.15;;;8.98;;
9880;SDS011;4979;51.014;6.678;2023-06-01T12:33:43;16.45;;;10.40;;
9880;SDS011;4979;51.014;6.678;2023-06-01T12:36:10;16.35;;;9.02;;
9880;SDS011;4979;51.014;6.678;2023-06-01T12:38:49;12.98;;;8.63;;
9880;SDS011;4979;51.014;6.678;2023-06-01T12:41:15;16.77;;;9.30;;
9880;SDS011;4979;51.014;6.678;2023-06-01T12:43:47;19.90;;;9.45;;
9880;SDS011;4979;51.014;6.678;2023-06-01T12:46:23;16.70;;;8.93;;
9880;SDS011;4979;51.014;6.678;2023-06-01T12:51:45;18.00;;;8.68;;
9880;SDS011;4979;51.014;6.678;2023-06-01T12:54:11;12.85;;;7.88;;
9880;SDS011;4979;51.014;6.678;2023-06-01T12:56:37;16.10;;;8.30;;
9880;SDS011;4979;51.014;6.678;2023-06-01T12:59:03;12.23;;;7.88;;
9880;SDS011;4979;51.014;6.678;2023-06-01T13:01:29;15.88;;;8.52;;
9880;SDS011;4979;51.014;6.678;2023-06-01T13:03:55;23.25;;;9.52;;
9880;SDS011;4979;51.014;6.678;2023-06-01T13:06:21;17.40;;;8.05;;
9880;SDS011;4979;51.014;6.678;2023-06-01T13:08:47;15.55;;;8.90;;
9880;SDS011;4979;51.014;6.678;2023-06-01T13:11:13;13.68;;;8.30;;
9880;SDS011;4979;51.014;6.678;2023-06-01T13:13:39;12.20;;;7.75;;
9880;SDS011;4979;51.014;6.678;2023-06-01T13:16:06;10.63;;;7.15;;
9880;SDS011;4979;51.014;6.678;2023-06-01T13:18:32;15.45;;;7.85;;
9880;SDS011;4979;51.014;6.678;2023-06-01T13:20:58;16.50;;;8.27;;
9880;SDS011;4979;51.014;6.678;2023-06-01T13:23:24;11.85;;;6.95;;
9880;SDS011;4979;51.014;6.678;2023-06-01T13:25:50;14.75;;;8.13;;
9880;SDS011;4979;51.014;6.678;2023-06-01T13:28:16;14.23;;;8.18;;
9880;SDS011;4979;51.014;6.678;2023-06-01T13:30:41;13.25;;;9.18;;
9880;SDS011;4979;51.014;6.678;2023-06-01T13:33:07;12.43;;;9.15;;
9880;SDS011;4979;51.014;6.678;2023-06-01T13:35:33;14.30;;;7.60;;
9880;SDS011;4979;51.014;6.678;2023-06-01T13:37:59;14.32;;;8.70;;
9880;SDS011;4979;51.014;6.678;2023-06-01T13:40:25;14.82;;;8.82;;
9880;SDS011;4979;51.014;6.678;2023-06-01T13:42:51;11.65;;;8.00;;
9880;SDS011;4979;51.014;6.678;2023-06-01T13:45:18;15.05;;;8.45;;
9880;SDS011;4979;51.014;6.678;2023-06-01T13:47:45;12.57;;;7.88;;
9880;SDS011;4979;51.014;6.678;2023-06-01T13:50:11;15.25;;;8.02;;
9880;SDS011;4979;51.014;6.678;2023-06-01T13:52:38;13.10;;;8.57;;
9880;SDS011;4979;51.014;6.678;2023-06-01T13:55:04;17.92;;;8.13;;
9880;SDS011;4979;51.014;6.678;2023-06-01T13:57:31;10.13;;;6.80;;
9880;SDS011;4979;51.014;6.678;2023-06-01T13:59:57;12.68;;;7.95;;
9880;SDS011;4979;51.014;6.678;2023-06-01T14:02:23;13.63;;;8.55;;
9880;SDS011;4979;51.014;6.678;2023-06-01T14:04:48;10.65;;;6.80;;
9880;SDS011;4979;51.014;6.678;2023-06-01T14:07:14;11.75;;;7.82;;
9880;SDS011;4979;51.014;6.678;2023-06-01T14:09:40;16.52;;;8.30;;
9880;SDS011;4979;51.014;6.678;2023-06-01T14:12:06;14.25;;;8.20;;
9880;SDS011;4979;51.014;6.678;2023-06-01T14:14:32;15.05;;;7.35;;
9880;SDS011;4979;51.014;6.678;2023-06-01T14:16:58;12.10;;;8.07;;
9880;SDS011;4979;51.014;6.678;2023-06-01T14:19:23;14.73;;;8.50;;
9880;SDS011;4979;51.014;6.678;2023-06-01T14:21:51;12.68;;;7.70;;
9880;SDS011;4979;51.014;6.678;2023-06-01T14:24:17;12.50;;;7.30;;
9880;SDS011;4979;51.014;6.678;2023-06-01T14:26:43;17.33;;;9.32;;
9880;SDS011;4979;51.014;6.678;2023-06-01T14:29:09;14.20;;;8.15;;
9880;SDS011;4979;51.014;6.678;2023-06-01T14:31:35;13.23;;;7.68;;
9880;SDS011;4979;51.014;6.678;2023-06-01T14:34:00;11.02;;;8.20;;
9880;SDS011;4979;51.014;6.678;2023-06-01T14:36:26;11.60;;;8.07;;
9880;SDS011;4979;51.014;6.678;2023-06-01T14:38:51;11.23;;;7.53;;
9880;SDS011;4979;51.014;6.678;2023-06-01T14:41:17;17.58;;;9.15;;
9880;SDS011;4979;51.014;6.678;2023-06-01T14:43:43;17.55;;;8.70;;
9880;SDS011;4979;51.014;6.678;2023-06-01T14:46:09;12.32;;;8.25;;
9880;SDS011;4979;51.014;6.678;2023-06-01T14:48:34;11.68;;;7.72;;
9880;SDS011;4979;51.014;6.678;2023-06-01T14:51:00;8.15;;;6.60;;
9880;SDS011;4979;51.014;6.678;2023-06-01T14:53:26;14.68;;;7.88;;
9880;SDS011;4979;51.014;6.678;2023-06-01T14:55:51;10.35;;;7.20;;
9880;SDS011;4979;51.014;6.678;2023-06-01T14:58:17;14.25;;;8.15;;
9880;SDS011;4979;51.014;6.678;2023-06-01T15:00:43;10.95;;;7.47;;
9880;SDS011;4979;51.014;6.678;2023-06-01T15:03:08;10.43;;;6.97;;
9880;SDS011;4979;51.014;6.678;2023-06-01T15:05:35;11.77;;;6.65;;
9880;SDS011;4979;51.014;6.678;2023-06-01T15:08:00;10.57;;;6.90;;
9880;SDS011;4979;51.014;6.678;2023-06-01T15:10:26;9.82;;;6.90;;
9880;SDS011;4979;51.014;6.678;2023-06-01T15:12:52;14.88;;;6.97;;
9880;SDS011;4979;51.014;6.678;2023-06-01T15:15:18;8.75;;;5.65;;
9880;SDS011;4979;51.014;6.678;2023-06-01T15:17:44;11.07;;;6.80;;
9880;SDS011;4979;51.014;6.678;2023-06-01T15:20:10;14.30;;;6.50;;
9880;SDS011;4979;51.014;6.678;2023-06-01T15:22:36;9.82;;;6.88;;
9880;SDS011;4979;51.014;6.678;2023-06-01T15:25:02;8.98;;;6.05;;
9880;SDS011;4979;51.014;6.678;2023-06-01T15:27:27;9.43;;;6.57;;
9880;SDS011;4979;51.014;6.678;2023-06-01T15:29:53;12.13;;;5.78;;
9880;SDS011;4979;51.014;6.678;2023-06-01T15:32:19;10.43;;;5.50;;
9880;SDS011;4979;51.014;6.678;2023-06-01T15:34:44;11.45;;;6.25;;
9880;SDS011;4979;51.014;6.678;2023-06-01T15:37:10;7.10;;;5.72;;
9880;SDS011;4979;51.014;6.678;2023-06-01T15:39:37;8.88;;;6.65;;
9880;SDS011;4979;51.014;6.678;2023-06-01T15:42:04;10.23;;;6.07;;
9880;SDS011;4979;51.014;6.678;2023-06-01T15:44:30;13.93;;;6.40;;
9880;SDS011;4979;51.014;6.678;2023-06-01T15:46:56;7.72;;;6.07;;
9880;SDS011;4979;51.014;6.678;2023-06-01T15:49:22;13.00;;;6.43;;
9880;SDS011;4979;51.014;6.678;2023-06-01T15:51:47;8.93;;;5.93;;
9880;SDS011;4979;51.014;6.678;2023-06-01T15:54:13;13.27;;;6.75;;
9880;SDS011;4979;51.014;6.678;2023-06-01T15:56:39;11.60;;;6.60;;